createdAt,value
2023-07-12T00:03:00.319Z,4.33
2023-07-12T00:08:03.741Z,5.15
2023-07-12T00:13:05.519Z,6.10
2023-07-12T00:18:14.950Z,5.53
2023-07-12T00:23:18.206Z,6.50
2023-07-12T00:28:24.503Z,5.95
2023-07-12T00:33:26.188Z,7.43
2023-07-12T00:38:28.096Z,5.70
2023-07-12T00:43:42.680Z,5.30
2023-07-12T00:48:48.114Z,4.85
2023-07-12T00:53:49.867Z,4.40
2023-07-12T00:59:04.500Z,6.27
2023-07-12T01:04:09.027Z,4.47
2023-07-12T01:09:14.697Z,5.03
2023-07-12T01:14:18.300Z,7.80
2023-07-12T01:19:20.246Z,5.22
2023-07-12T01:24:24.753Z,4.83
2023-07-12T01:29:29.304Z,4.82
2023-07-12T01:34:31.220Z,5.03
2023-07-12T01:39:36.500Z,5.63
2023-07-12T01:44:39.206Z,6.43
2023-07-12T01:49:41.475Z,4.60
2023-07-12T01:54:43.373Z,5.13
2023-07-12T01:59:45.476Z,9.07
2023-07-12T02:04:47.637Z,7.43
2023-07-12T02:10:16.435Z,6.65
2023-07-12T02:15:19.934Z,7.38
2023-07-12T02:20:22.268Z,6.35
2023-07-12T02:25:24.447Z,6.78
2023-07-12T02:30:29.060Z,7.00
2023-07-12T02:35:32.715Z,7.70
2023-07-12T02:45:36.498Z,9.38
2023-07-12T02:50:38.390Z,6.80
2023-07-12T02:55:40.235Z,6.13
2023-07-12T03:00:42.886Z,6.25
2023-07-12T03:05:44.648Z,6.65
2023-07-12T03:10:46.845Z,9.02
2023-07-12T03:15:50.872Z,5.80
2023-07-12T03:20:52.686Z,7.53
2023-07-12T03:25:54.501Z,10.03
2023-07-12T03:31:12.336Z,7.93
2023-07-12T03:36:16.339Z,7.68
2023-07-12T03:41:21.695Z,8.00
2023-07-12T03:46:23.814Z,10.48
2023-07-12T03:51:25.732Z,6.43
2023-07-12T03:56:27.591Z,5.37
2023-07-12T04:01:30.133Z,7.43
2023-07-12T04:11:36.894Z,15.23
2023-07-12T04:16:38.917Z,5.75
2023-07-12T04:21:40.668Z,6.43
2023-07-12T04:26:42.400Z,7.47
2023-07-12T04:31:44.384Z,13.23
2023-07-12T04:36:46.192Z,6.23
2023-07-12T04:41:47.951Z,6.00
2023-07-12T04:46:49.927Z,8.37
2023-07-12T04:51:51.703Z,8.07
2023-07-12T04:56:53.462Z,12.23
2023-07-12T05:01:55.423Z,8.37
2023-07-12T05:06:57.573Z,10.05
2023-07-12T05:11:59.275Z,6.53
2023-07-12T05:17:01.065Z,10.40
2023-07-12T05:22:02.982Z,8.43
2023-07-12T05:27:05.289Z,9.07
2023-07-12T05:32:07.318Z,11.02
2023-07-12T05:37:11.081Z,13.43
2023-07-12T05:42:12.982Z,10.05
2023-07-12T05:47:14.976Z,14.20
2023-07-12T05:52:17.182Z,10.88
2023-07-12T05:57:18.930Z,9.10
2023-07-12T06:02:20.671Z,7.93
2023-07-12T06:07:22.640Z,10.63
2023-07-12T06:12:25.320Z,9.27
2023-07-12T06:17:27.198Z,8.73
2023-07-12T06:22:29.274Z,11.23
2023-07-12T06:27:31.117Z,8.13
2023-07-12T06:32:34.252Z,10.40
2023-07-12T06:37:36.010Z,8.10
2023-07-12T06:42:38.121Z,9.05
2023-07-12T06:47:39.874Z,12.60
2023-07-12T06:52:41.702Z,10.90
2023-07-12T06:57:43.452Z,8.97
2023-07-12T07:02:45.275Z,9.07
2023-07-12T07:07:47.222Z,8.60
2023-07-12T07:12:49.136Z,9.52
2023-07-12T07:17:50.881Z,11.37
2023-07-12T07:22:52.702Z,10.73
2023-07-12T07:27:56.100Z,13.40
2023-07-12T07:32:59.513Z,10.80
2023-07-12T07:38:01.451Z,12.15
2023-07-12T07:43:03.298Z,9.68
2023-07-12T07:48:05.633Z,12.80
2023-07-12T07:58:10.975Z,8.88
2023-07-12T08:03:12.992Z,16.15
2023-07-12T08:08:15.166Z,12.75
2023-07-12T08:18:19.561Z,11.07
2023-07-12T08:23:22.046Z,8.00
2023-07-12T08:28:23.748Z,10.25
2023-07-12T08:33:25.831Z,9.80
2023-07-12T08:38:32.285Z,9.10
2023-07-12T08:43:34.936Z,11.48
2023-07-12T08:53:42.096Z,11.77
2023-07-12T08:58:51.601Z,11.27
2023-07-12T09:03:53.401Z,8.77
2023-07-12T09:08:55.772Z,7.88
2023-07-12T09:13:58.619Z,11.63
2023-07-12T09:19:13.438Z,14.82
2023-07-12T09:24:24.276Z,12.25
2023-07-12T09:29:28.599Z,14.82
2023-07-12T09:34:37.899Z,13.38
2023-07-12T09:39:39.884Z,8.45
2023-07-12T09:44:43.460Z,15.32
2023-07-12T09:50:05.446Z,12.13
2023-07-12T09:55:33.352Z,12.65
2023-07-12T10:00:44.021Z,9.38
2023-07-12T10:05:56.130Z,9.82
2023-07-12T10:11:06.590Z,8.20
2023-07-12T10:16:31.399Z,7.68
2023-07-12T10:21:33.625Z,8.40
2023-07-12T10:26:36.918Z,10.15
2023-07-12T10:31:49.470Z,11.82
2023-07-12T10:36:56.032Z,11.68
2023-07-12T10:42:08.080Z,7.82
2023-07-12T10:47:16.808Z,9.15
2023-07-12T10:52:28.617Z,9.45
2023-07-12T10:57:51.604Z,9.35
2023-07-12T11:03:17.118Z,9.02
2023-07-12T11:08:31.096Z,10.30
2023-07-12T11:13:35.286Z,7.40
2023-07-12T11:18:38.775Z,8.43
2023-07-12T11:23:43.865Z,11.18
2023-07-12T11:28:45.665Z,9.00
2023-07-12T11:34:15.704Z,8.30
2023-07-12T11:39:19.792Z,12.00
2023-07-12T11:44:21.658Z,14.10
2023-07-12T11:49:29.144Z,8.30
2023-07-12T11:54:39.092Z,13.35
2023-07-12T11:59:45.740Z,10.65
2023-07-12T12:04:51.745Z,11.32
2023-07-12T12:09:55.546Z,9.05
2023-07-12T12:14:58.366Z,10.25
2023-07-12T12:20:33.368Z,10.75
2023-07-12T12:26:12.945Z,10.48
2023-07-12T12:31:14.774Z,12.02
2023-07-12T12:36:28.788Z,8.63
2023-07-12T12:41:37.326Z,10.45
2023-07-12T13:07:02.979Z,13.45
2023-07-12T13:22:25.546Z,12.68
2023-07-12T13:27:34.151Z,10.32
2023-07-12T13:32:35.994Z,10.95
2023-07-12T13:37:43.071Z,11.63
2023-07-12T13:42:57.204Z,10.10
2023-07-12T13:48:00.250Z,11.10
2023-07-12T13:53:02.191Z,11.30
2023-07-12T14:03:22.181Z,9.18
2023-07-12T14:08:37.360Z,8.60
2023-07-12T14:13:40.331Z,9.38
2023-07-12T14:18:42.563Z,9.93
2023-07-12T14:23:44.683Z,8.77
2023-07-12T14:28:55.325Z,8.57
2023-07-12T14:33:57.954Z,10.35
2023-07-12T14:39:01.684Z,7.60
2023-07-12T14:44:15.567Z,7.88
2023-07-12T14:49:17.744Z,8.25
2023-07-12T14:54:21.891Z,7.45
2023-07-12T14:59:23.814Z,7.78
2023-07-12T15:04:26.388Z,6.13
2023-07-12T15:09:28.456Z,8.35
2023-07-12T15:14:30.253Z,10.15
2023-07-12T15:19:33.260Z,8.97
2023-07-12T15:24:35.563Z,7.68
2023-07-12T15:29:37.608Z,8.98
2023-07-12T15:39:47.809Z,6.93
2023-07-12T15:44:52.987Z,8.68
2023-07-12T15:49:55.072Z,11.05
2023-07-12T15:54:57.004Z,7.28
2023-07-12T15:59:59.393Z,6.53
2023-07-12T16:10:06.044Z,14.65
2023-07-12T16:15:17.591Z,9.32
2023-07-12T16:20:20.394Z,7.28
2023-07-12T16:25:24.846Z,8.93
2023-07-12T16:30:27.217Z,7.40
2023-07-12T16:35:29.093Z,9.85
2023-07-12T16:40:31.013Z,9.37
2023-07-12T16:45:32.824Z,7.72
2023-07-12T16:50:35.150Z,10.32
2023-07-12T16:55:38.570Z,8.02
2023-07-12T17:00:41.842Z,8.90
2023-07-12T17:05:44.802Z,9.02
2023-07-12T17:10:46.899Z,8.43
2023-07-12T17:15:48.691Z,12.15
2023-07-12T17:20:54.931Z,7.38
2023-07-12T17:25:59.586Z,12.02
2023-07-12T17:31:12.822Z,13.18
2023-07-12T17:36:19.110Z,14.30
2023-07-12T17:41:26.261Z,9.85
2023-07-12T17:46:28.740Z,8.65
2023-07-12T17:51:30.593Z,10.80
2023-07-12T17:56:32.308Z,10.73
2023-07-12T18:01:34.132Z,10.13
2023-07-12T18:06:36.138Z,9.50
2023-07-12T18:11:41.477Z,9.77
2023-07-12T18:16:43.723Z,9.15
2023-07-12T18:21:45.615Z,8.50
2023-07-12T18:26:48.962Z,9.93
2023-07-12T18:31:51.720Z,9.65
2023-07-12T18:36:53.650Z,11.45
2023-07-12T18:46:59.898Z,10.82
2023-07-12T18:52:01.830Z,9.57
2023-07-12T18:57:04.676Z,12.65
2023-07-12T19:02:15.621Z,11.23
2023-07-12T19:07:23.872Z,9.40
2023-07-12T19:12:26.048Z,10.32
2023-07-12T19:17:27.958Z,13.57
2023-07-12T19:22:29.803Z,9.40
2023-07-12T19:27:42.708Z,10.43
2023-07-12T19:32:45.679Z,14.18
2023-07-12T19:37:48.213Z,13.45
2023-07-12T19:42:54.079Z,14.52
2023-07-12T19:47:56.085Z,12.23
2023-07-12T19:52:58.363Z,13.55
2023-07-12T19:58:00.345Z,13.48
2023-07-12T20:03:02.517Z,14.98
2023-07-12T20:08:05.337Z,13.80
2023-07-12T20:13:09.649Z,15.88
2023-07-12T20:18:13.239Z,16.77
2023-07-12T20:23:15.212Z,13.52
2023-07-12T20:28:18.569Z,16.17
2023-07-12T20:33:22.469Z,14.05
2023-07-12T20:38:24.148Z,18.10
2023-07-12T20:43:26.157Z,14.23
2023-07-12T20:48:36.069Z,19.60
2023-07-12T20:53:39.201Z,15.65
2023-07-12T20:58:41.143Z,18.00
2023-07-12T21:03:44.057Z,16.27
2023-07-12T21:08:47.049Z,17.27
2023-07-12T21:13:49.047Z,14.50
2023-07-12T21:18:52.728Z,10.00
2023-07-12T21:23:54.791Z,9.88
2023-07-12T21:28:56.784Z,9.48
2023-07-12T21:33:59.467Z,7.88
2023-07-12T21:39:01.635Z,7.75
2023-07-12T21:44:03.579Z,10.13
2023-07-12T21:49:05.448Z,7.53
2023-07-12T21:54:07.443Z,7.80
2023-07-12T21:59:09.508Z,9.60
2023-07-12T22:04:11.578Z,8.68
2023-07-12T22:09:14.289Z,7.75
2023-07-12T22:14:16.713Z,9.88
2023-07-12T22:19:18.734Z,7.60
2023-07-12T22:24:20.607Z,7.43
2023-07-12T22:29:23.109Z,7.13
2023-07-12T22:34:26.006Z,7.65
2023-07-12T22:39:29.033Z,5.93
2023-07-12T22:44:30.935Z,5.05
2023-07-12T22:49:32.777Z,7.47
2023-07-12T22:54:34.942Z,6.35
2023-07-12T22:59:37.396Z,7.35
2023-07-12T23:04:39.374Z,9.45
2023-07-12T23:09:42.415Z,8.88
2023-07-12T23:14:44.712Z,11.68
2023-07-12T23:19:47.172Z,8.00
2023-07-12T23:24:50.418Z,9.38
2023-07-12T23:29:52.314Z,6.78
2023-07-12T23:34:54.096Z,7.60
2023-07-12T23:39:57.223Z,8.93
2023-07-12T23:44:59.087Z,10.88
2023-07-12T23:50:01.862Z,8.00
2023-07-12T23:55:04.314Z,6.32
